sensor_id;sensor_type;location;lat;lon;timestamp;temperature;humidity
7411;DHT22;3747;48.628;9.058;2023-04-10T00:00:27;0.70;99.90
7411;DHT22;3747;48.628;9.058;2023-04-10T00:02:55;0.70;99.90
7411;DHT22;3747;48.628;9.058;2023-04-10T00:05:22;0.70;99.90
7411;DHT22;3747;48.628;9.058;2023-04-10T00:07:48;0.70;99.90
7411;DHT22;3747;48.628;9.058;2023-04-10T00:10:15;0.70;99.90
7411;DHT22;3747;48.628;9.058;2023-04-10T00:12:43;0.60;99.90
7411;DHT22;3747;48.628;9.058;2023-04-10T00:15:10;0.60;99.90
7411;DHT22;3747;48.628;9.058;2023-04-10T00:17:37;0.60;99.90
7411;DHT22;3747;48.628;9.058;2023-04-10T00:20:05;0.60;99.90
7411;DHT22;3747;48.628;9.058;2023-04-10T00:22:32;0.70;99.90
7411;DHT22;3747;48.628;9.058;2023-04-10T00:24:59;0.70;99.90
7411;DHT22;3747;48.628;9.058;2023-04-10T00:27:25;0.60;99.90
7411;DHT22;3747;48.628;9.058;2023-04-10T00:29:53;0.50;99.90
7411;DHT22;3747;48.628;9.058;2023-04-10T00:32:20;0.50;99.90
7411;DHT22;3747;48.628;9.058;2023-04-10T00:34:46;0.50;99.90
7411;DHT22;3747;48.628;9.058;2023-04-10T00:37:13;0.70;99.90
7411;DHT22;3747;48.628;9.058;2023-04-10T00:39:40;1.10;99.90
7411;DHT22;3747;48.628;9.058;2023-04-10T00:42:06;1.20;99.90
7411;DHT22;3747;48.628;9.058;2023-04-10T00:44:34;1.00;99.90
7411;DHT22;3747;48.628;9.058;2023-04-10T00:47:03;0.80;99.90
7411;DHT22;3747;48.628;9.058;2023-04-10T00:49:30;0.60;99.90
7411;DHT22;3747;48.628;9.058;2023-04-10T00:51:57;0.40;99.90
7411;DHT22;3747;48.628;9.058;2023-04-10T00:54:24;0.30;99.90
7411;DHT22;3747;48.628;9.058;2023-04-10T00:56:51;0.20;99.90
7411;DHT22;3747;48.628;9.058;2023-04-10T00:59:18;0.20;99.90
7411;DHT22;3747;48.628;9.058;2023-04-10T01:01:44;0.10;99.90
7411;DHT22;3747;48.628;9.058;2023-04-10T01:04:13;0.10;99.90
7411;DHT22;3747;48.628;9.058;2023-04-10T01:06:51;0.10;99.90
7411;DHT22;3747;48.628;9.058;2023-04-10T01:09:25;0.00;99.90
7411;DHT22;3747;48.628;9.058;2023-04-10T01:12:01;-0.10;99.90
7411;DHT22;3747;48.628;9.058;2023-04-10T01:14:36;-0.20;99.90
7411;DHT22;3747;48.628;9.058;2023-04-10T01:17:07;-0.30;99.90
7411;DHT22;3747;48.628;9.058;2023-04-10T01:20:00;-0.30;99.90
7411;DHT22;3747;48.628;9.058;2023-04-10T01:22:33;-0.30;99.90
7411;DHT22;3747;48.628;9.058;2023-04-10T01:25:10;-0.20;99.90
7411;DHT22;3747;48.628;9.058;2023-04-10T01:27:49;-0.20;99.90
7411;DHT22;3747;48.628;9.058;2023-04-10T01:30:21;-0.10;99.90
7411;DHT22;3747;48.628;9.058;2023-04-10T01:32:49;-0.10;99.90
7411;DHT22;3747;48.628;9.058;2023-04-10T01:35:17;-0.10;99.90
7411;DHT22;3747;48.628;9.058;2023-04-10T01:37:46;-0.10;99.90
7411;DHT22;3747;48.628;9.058;2023-04-10T01:40:16;-0.20;99.90
7411;DHT22;3747;48.628;9.058;2023-04-10T01:42:49;-0.30;99.90
7411;DHT22;3747;48.628;9.058;2023-04-10T01:45:19;-0.30;99.90
7411;DHT22;3747;48.628;9.058;2023-04-10T01:47:47;-0.40;99.90
7411;DHT22;3747;48.628;9.058;2023-04-10T01:50:14;-0.50;99.90
7411;DHT22;3747;48.628;9.058;2023-04-10T01:52:43;-0.40;99.90
7411;DHT22;3747;48.628;9.058;2023-04-10T01:55:11;-0.50;99.90
7411;DHT22;3747;48.628;9.058;2023-04-10T01:57:37;-0.50;99.90
7411;DHT22;3747;48.628;9.058;2023-04-10T02:00:05;-0.40;99.90
7411;DHT22;3747;48.628;9.058;2023-04-10T02:02:32;-0.30;99.90
7411;DHT22;3747;48.628;9.058;2023-04-10T02:05:01;-0.20;99.90
7411;DHT22;3747;48.628;9.058;2023-04-10T02:07:33;-0.20;99.90
7411;DHT22;3747;48.628;9.058;2023-04-10T02:10:06;-0.20;99.90
7411;DHT22;3747;48.628;9.058;2023-04-10T02:12:44;-0.10;99.90
7411;DHT22;3747;48.628;9.058;2023-04-10T02:15:11;-0.10;99.90
7411;DHT22;3747;48.628;9.058;2023-04-10T02:17:39;-0.20;99.90
7411;DHT22;3747;48.628;9.058;2023-04-10T02:20:08;-0.30;99.90
7411;DHT22;3747;48.628;9.058;2023-04-10T02:22:36;-0.30;99.90
7411;DHT22;3747;48.628;9.058;2023-04-10T02:25:03;-0.30;99.90
7411;DHT22;3747;48.628;9.058;2023-04-10T02:27:32;-0.30;99.90
7411;DHT22;3747;48.628;9.058;2023-04-10T02:30:00;-0.30;99.90
7411;DHT22;3747;48.628;9.058;2023-04-10T02:32:27;-0.40;99.90
7411;DHT22;3747;48.628;9.058;2023-04-10T02:34:54;-0.50;99.90
7411;DHT22;3747;48.628;9.058;2023-04-10T02:37:23;-0.60;99.90
7411;DHT22;3747;48.628;9.058;2023-04-10T02:39:50;-0.70;99.90
7411;DHT22;3747;48.628;9.058;2023-04-10T02:42:17;-0.70;99.90
7411;DHT22;3747;48.628;9.058;2023-04-10T02:44:43;-0.60;99.90
7411;DHT22;3747;48.628;9.058;2023-04-10T02:47:10;-0.60;99.90
7411;DHT22;3747;48.628;9.058;2023-04-10T02:49:37;-0.50;99.90
7411;DHT22;3747;48.628;9.058;2023-04-10T02:52:04;-0.30;99.90
7411;DHT22;3747;48.628;9.058;2023-04-10T02:54:32;-0.30;99.90
7411;DHT22;3747;48.628;9.058;2023-04-10T02:56:59;-0.20;99.90
7411;DHT22;3747;48.628;9.058;2023-04-10T02:59:26;-0.10;99.90
7411;DHT22;3747;48.628;9.058;2023-04-10T03:01:53;-0.10;99.90
7411;DHT22;3747;48.628;9.058;2023-04-10T03:04:20;-0.20;99.90
7411;DHT22;3747;48.628;9.058;2023-04-10T03:06:46;-0.20;99.90
7411;DHT22;3747;48.628;9.058;2023-04-10T03:09:13;-0.30;99.90
7411;DHT22;3747;48.628;9.058;2023-04-10T03:11:41;-0.30;99.90
7411;DHT22;3747;48.628;9.058;2023-04-10T03:14:08;-0.20;99.90
7411;DHT22;3747;48.628;9.058;2023-04-10T03:16:35;-0.20;99.90
7411;DHT22;3747;48.628;9.058;2023-04-10T03:19:02;-0.20;99.90
7411;DHT22;3747;48.628;9.058;2023-04-10T03:21:28;-0.20;99.90
7411;DHT22;3747;48.628;9.058;2023-04-10T03:23:55;-0.30;99.90
7411;DHT22;3747;48.628;9.058;2023-04-10T03:26:22;-0.40;99.90
7411;DHT22;3747;48.628;9.058;2023-04-10T03:28:50;-0.40;99.90
7411;DHT22;3747;48.628;9.058;2023-04-10T03:31:17;-0.50;99.90
7411;DHT22;3747;48.628;9.058;2023-04-10T03:33:44;-0.60;99.90
7411;DHT22;3747;48.628;9.058;2023-04-10T03:36:11;-0.70;99.90
7411;DHT22;3747;48.628;9.058;2023-04-10T03:38:38;-0.70;99.90
7411;DHT22;3747;48.628;9.058;2023-04-10T03:41:05;-0.70;99.90
7411;DHT22;3747;48.628;9.058;2023-04-10T03:43:32;-0.30;99.90
7411;DHT22;3747;48.628;9.058;2023-04-10T03:46:00;0.10;99.90
7411;DHT22;3747;48.628;9.058;2023-04-10T03:48:27;0.40;99.90
7411;DHT22;3747;48.628;9.058;2023-04-10T03:50:55;0.50;99.90
7411;DHT22;3747;48.628;9.058;2023-04-10T03:53:22;0.60;99.90
7411;DHT22;3747;48.628;9.058;2023-04-10T03:55:49;0.60;99.90
7411;DHT22;3747;48.628;9.058;2023-04-10T03:58:16;0.60;99.90
7411;DHT22;3747;48.628;9.058;2023-04-10T04:00:43;0.30;99.90
7411;DHT22;3747;48.628;9.058;2023-04-10T04:03:11;0.10;99.90
7411;DHT22;3747;48.628;9.058;2023-04-10T04:05:38;-0.10;99.90
7411;DHT22;3747;48.628;9.058;2023-04-10T04:08:05;-0.30;99.90
7411;DHT22;3747;48.628;9.058;2023-04-10T04:10:31;-0.40;99.90
7411;DHT22;3747;48.628;9.058;2023-04-10T04:12:58;-0.40;99.90
7411;DHT22;3747;48.628;9.058;2023-04-10T04:15:25;-0.40;99.90
7411;DHT22;3747;48.628;9.058;2023-04-10T04:17:51;-0.30;99.90
7411;DHT22;3747;48.628;9.058;2023-04-10T04:20:19;-0.20;99.90
7411;DHT22;3747;48.628;9.058;2023-04-10T04:22:46;-0.40;99.90
7411;DHT22;3747;48.628;9.058;2023-04-10T04:25:13;-0.50;99.90
7411;DHT22;3747;48.628;9.058;2023-04-10T04:27:40;-0.50;99.90
7411;DHT22;3747;48.628;9.058;2023-04-10T04:30:07;-0.20;99.90
7411;DHT22;3747;48.628;9.058;2023-04-10T04:32:35;0.10;99.90
7411;DHT22;3747;48.628;9.058;2023-04-10T04:35:01;0.50;99.90
7411;DHT22;3747;48.628;9.058;2023-04-10T04:37:29;0.60;99.90
7411;DHT22;3747;48.628;9.058;2023-04-10T04:39:56;0.70;99.90
7411;DHT22;3747;48.628;9.058;2023-04-10T04:42:23;0.70;99.90
7411;DHT22;3747;48.628;9.058;2023-04-10T04:44:50;0.70;99.90
7411;DHT22;3747;48.628;9.058;2023-04-10T04:47:17;0.70;99.90
7411;DHT22;3747;48.628;9.058;2023-04-10T04:49:44;0.80;99.90
7411;DHT22;3747;48.628;9.058;2023-04-10T04:52:11;0.80;99.90
7411;DHT22;3747;48.628;9.058;2023-04-10T04:54:39;0.80;99.90
7411;DHT22;3747;48.628;9.058;2023-04-10T04:57:06;0.80;99.90
7411;DHT22;3747;48.628;9.058;2023-04-10T04:59:32;0.90;99.90
7411;DHT22;3747;48.628;9.058;2023-04-10T05:01:59;0.90;99.90
7411;DHT22;3747;48.628;9.058;2023-04-10T05:04:26;0.70;99.90
7411;DHT22;3747;48.628;9.058;2023-04-10T05:06:52;0.50;99.90
7411;DHT22;3747;48.628;9.058;2023-04-10T05:09:19;0.40;99.90
7411;DHT22;3747;48.628;9.058;2023-04-10T05:11:47;0.30;99.90
7411;DHT22;3747;48.628;9.058;2023-04-10T05:14:14;0.30;99.90
7411;DHT22;3747;48.628;9.058;2023-04-10T05:16:41;0.30;99.90
7411;DHT22;3747;48.628;9.058;2023-04-10T05:19:08;0.30;99.90
7411;DHT22;3747;48.628;9.058;2023-04-10T05:21:34;0.30;99.90
7411;DHT22;3747;48.628;9.058;2023-04-10T05:24:02;0.40;99.90
7411;DHT22;3747;48.628;9.058;2023-04-10T05:26:29;0.40;99.90
7411;DHT22;3747;48.628;9.058;2023-04-10T05:28:57;0.50;99.90
7411;DHT22;3747;48.628;9.058;2023-04-10T05:31:24;0.60;99.90
7411;DHT22;3747;48.628;9.058;2023-04-10T05:33:50;0.70;99.90
7411;DHT22;3747;48.628;9.058;2023-04-10T05:36:17;0.90;99.90
7411;DHT22;3747;48.628;9.058;2023-04-10T05:38:44;1.00;99.90
7411;DHT22;3747;48.628;9.058;2023-04-10T05:41:10;1.10;99.90
7411;DHT22;3747;48.628;9.058;2023-04-10T05:43:37;1.10;99.90
7411;DHT22;3747;48.628;9.058;2023-04-10T05:46:06;1.20;99.90
7411;DHT22;3747;48.628;9.058;2023-04-10T05:48:33;1.30;99.90
7411;DHT22;3747;48.628;9.058;2023-04-10T05:51:00;1.50;99.90
7411;DHT22;3747;48.628;9.058;2023-04-10T05:53:27;1.70;99.90
7411;DHT22;3747;48.628;9.058;2023-04-10T05:55:56;1.90;99.90
7411;DHT22;3747;48.628;9.058;2023-04-10T05:58:24;2.10;99.90
7411;DHT22;3747;48.628;9.058;2023-04-10T06:00:50;2.20;99.90
7411;DHT22;3747;48.628;9.058;2023-04-10T06:03:18;2.40;99.90
7411;DHT22;3747;48.628;9.058;2023-04-10T06:05:45;2.50;99.90
7411;DHT22;3747;48.628;9.058;2023-04-10T06:08:12;2.70;99.90
7411;DHT22;3747;48.628;9.058;2023-04-10T06:10:39;2.80;99.90
7411;DHT22;3747;48.628;9.058;2023-04-10T06:13:06;3.00;99.90
7411;DHT22;3747;48.628;9.058;2023-04-10T06:15:32;3.10;99.90
7411;DHT22;3747;48.628;9.058;2023-04-10T06:17:59;3.30;99.90
7411;DHT22;3747;48.628;9.058;2023-04-10T06:20:28;3.40;99.90
7411;DHT22;3747;48.628;9.058;2023-04-10T06:22:55;3.50;99.90
7411;DHT22;3747;48.628;9.058;2023-04-10T06:25:21;3.70;99.90
7411;DHT22;3747;48.628;9.058;2023-04-10T06:27:48;3.80;99.90
7411;DHT22;3747;48.628;9.058;2023-04-10T06:30:15;3.90;99.90
7411;DHT22;3747;48.628;9.058;2023-04-10T06:32:41;4.00;99.90
7411;DHT22;3747;48.628;9.058;2023-04-10T06:35:09;4.10;99.90
7411;DHT22;3747;48.628;9.058;2023-04-10T06:37:37;4.30;99.90
7411;DHT22;3747;48.628;9.058;2023-04-10T06:40:05;4.40;99.90
7411;DHT22;3747;48.628;9.058;2023-04-10T06:42:32;4.70;99.90
7411;DHT22;3747;48.628;9.058;2023-04-10T06:44:59;5.10;99.90
7411;DHT22;3747;48.628;9.058;2023-04-10T06:47:25;5.50;99.90
7411;DHT22;3747;48.628;9.058;2023-04-10T06:49:52;6.10;99.90
7411;DHT22;3747;48.628;9.058;2023-04-10T06:52:19;6.80;99.90
7411;DHT22;3747;48.628;9.058;2023-04-10T06:54:47;7.30;99.90
7411;DHT22;3747;48.628;9.058;2023-04-10T06:57:14;7.00;99.90
7411;DHT22;3747;48.628;9.058;2023-04-10T06:59:41;6.70;99.90
7411;DHT22;3747;48.628;9.058;2023-04-10T07:02:08;6.40;99.90
7411;DHT22;3747;48.628;9.058;2023-04-10T07:04:34;6.40;99.90
7411;DHT22;3747;48.628;9.058;2023-04-10T07:07:01;6.80;99.90
7411;DHT22;3747;48.628;9.058;2023-04-10T07:09:28;7.90;99.90
7411;DHT22;3747;48.628;9.058;2023-04-10T07:11:56;8.80;99.90
7411;DHT22;3747;48.628;9.058;2023-04-10T07:14:23;10.00;99.90
7411;DHT22;3747;48.628;9.058;2023-04-10T07:16:50;10.70;99.90
7411;DHT22;3747;48.628;9.058;2023-04-10T07:19:18;11.20;99.90
7411;DHT22;3747;48.628;9.058;2023-04-10T07:21:45;11.60;99.90
7411;DHT22;3747;48.628;9.058;2023-04-10T07:24:14;11.90;99.90
7411;DHT22;3747;48.628;9.058;2023-04-10T07:26:41;12.20;99.90
7411;DHT22;3747;48.628;9.058;2023-04-10T07:29:09;12.70;99.90
7411;DHT22;3747;48.628;9.058;2023-04-10T07:31:36;13.00;99.90
7411;DHT22;3747;48.628;9.058;2023-04-10T07:34:03;13.20;99.90
7411;DHT22;3747;48.628;9.058;2023-04-10T07:36:29;12.90;99.90
7411;DHT22;3747;48.628;9.058;2023-04-10T07:38:57;13.10;99.90
7411;DHT22;3747;48.628;9.058;2023-04-10T07:41:24;13.30;99.90
7411;DHT22;3747;48.628;9.058;2023-04-10T07:43:50;13.30;99.90
7411;DHT22;3747;48.628;9.058;2023-04-10T07:46:18;13.60;99.90
7411;DHT22;3747;48.628;9.058;2023-04-10T07:48:45;13.80;99.90
7411;DHT22;3747;48.628;9.058;2023-04-10T07:51:12;14.00;99.90
7411;DHT22;3747;48.628;9.058;2023-04-10T07:53:39;14.20;99.90
7411;DHT22;3747;48.628;9.058;2023-04-10T07:56:13;14.30;99.90
7411;DHT22;3747;48.628;9.058;2023-04-10T07:58:40;14.20;99.90
7411;DHT22;3747;48.628;9.058;2023-04-10T08:01:06;14.20;99.90
7411;DHT22;3747;48.628;9.058;2023-04-10T08:03:43;14.30;99.90
7411;DHT22;3747;48.628;9.058;2023-04-10T08:06:11;14.20;99.90
7411;DHT22;3747;48.628;9.058;2023-04-10T08:08:39;14.20;99.90
7411;DHT22;3747;48.628;9.058;2023-04-10T08:11:20;14.00;99.90
7411;DHT22;3747;48.628;9.058;2023-04-10T08:13:47;14.30;99.90
7411;DHT22;3747;48.628;9.058;2023-04-10T08:16:14;14.20;99.90
7411;DHT22;3747;48.628;9.058;2023-04-10T08:18:42;14.30;99.90
7411;DHT22;3747;48.628;9.058;2023-04-10T08:21:08;14.10;99.20
7411;DHT22;3747;48.628;9.058;2023-04-10T08:23:35;13.90;98.80
7411;DHT22;3747;48.628;9.058;2023-04-10T08:26:02;13.90;99.90
7411;DHT22;3747;48.628;9.058;2023-04-10T08:28:29;14.20;99.90
7411;DHT22;3747;48.628;9.058;2023-04-10T08:30:56;14.30;96.80
7411;DHT22;3747;48.628;9.058;2023-04-10T08:33:23;14.00;96.70
7411;DHT22;3747;48.628;9.058;2023-04-10T08:35:51;13.40;96.60
7411;DHT22;3747;48.628;9.058;2023-04-10T08:38:18;13.30;96.30
7411;DHT22;3747;48.628;9.058;2023-04-10T08:40:45;13.20;96.30
7411;DHT22;3747;48.628;9.058;2023-04-10T08:43:13;13.30;97.60
7411;DHT22;3747;48.628;9.058;2023-04-10T08:45:40;13.60;96.70
7411;DHT22;3747;48.628;9.058;2023-04-10T08:48:07;13.80;96.70
7411;DHT22;3747;48.628;9.058;2023-04-10T08:50:40;13.90;96.40
7411;DHT22;3747;48.628;9.058;2023-04-10T08:53:10;14.20;96.40
7411;DHT22;3747;48.628;9.058;2023-04-10T08:55:38;14.30;95.90
7411;DHT22;3747;48.628;9.058;2023-04-10T08:58:06;14.60;96.50
7411;DHT22;3747;48.628;9.058;2023-04-10T09:00:33;14.70;96.00
7411;DHT22;3747;48.628;9.058;2023-04-10T09:03:03;14.70;96.00
7411;DHT22;3747;48.628;9.058;2023-04-10T09:05:34;14.70;96.00
7411;DHT22;3747;48.628;9.058;2023-04-10T09:08:01;14.90;95.10
7411;DHT22;3747;48.628;9.058;2023-04-10T09:10:30;15.20;95.10
7411;DHT22;3747;48.628;9.058;2023-04-10T09:13:06;15.40;94.20
7411;DHT22;3747;48.628;9.058;2023-04-10T09:15:54;15.50;94.80
7411;DHT22;3747;48.628;9.058;2023-04-10T09:18:20;15.90;93.50
7411;DHT22;3747;48.628;9.058;2023-04-10T09:20:47;16.40;93.80
7411;DHT22;3747;48.628;9.058;2023-04-10T09:23:19;17.10;93.50
7411;DHT22;3747;48.628;9.058;2023-04-10T09:25:48;17.30;93.00
7411;DHT22;3747;48.628;9.058;2023-04-10T09:28:15;16.90;91.50
7411;DHT22;3747;48.628;9.058;2023-04-10T09:30:42;17.00;92.10
7411;DHT22;3747;48.628;9.058;2023-04-10T09:33:22;17.00;88.10
7411;DHT22;3747;48.628;9.058;2023-04-10T09:35:49;17.20;91.40
7411;DHT22;3747;48.628;9.058;2023-04-10T09:38:17;17.20;90.90
7411;DHT22;3747;48.628;9.058;2023-04-10T09:40:44;17.30;89.60
7411;DHT22;3747;48.628;9.058;2023-04-10T09:43:21;17.00;85.40
7411;DHT22;3747;48.628;9.058;2023-04-10T09:45:50;16.40;87.60
7411;DHT22;3747;48.628;9.058;2023-04-10T09:48:17;16.80;90.80
7411;DHT22;3747;48.628;9.058;2023-04-10T09:50:44;17.00;88.10
7411;DHT22;3747;48.628;9.058;2023-04-10T09:53:12;17.50;90.60
7411;DHT22;3747;48.628;9.058;2023-04-10T09:55:40;17.90;84.90
7411;DHT22;3747;48.628;9.058;2023-04-10T09:58:08;17.80;82.40
7411;DHT22;3747;48.628;9.058;2023-04-10T10:00:39;17.70;84.90
7411;DHT22;3747;48.628;9.058;2023-04-10T10:03:10;17.90;79.90
7411;DHT22;3747;48.628;9.058;2023-04-10T10:05:44;17.50;81.30
7411;DHT22;3747;48.628;9.058;2023-04-10T10:08:12;17.50;80.80
7411;DHT22;3747;48.628;9.058;2023-04-10T10:10:42;17.90;80.30
7411;DHT22;3747;48.628;9.058;2023-04-10T10:13:14;18.20;80.40
7411;DHT22;3747;48.628;9.058;2023-04-10T10:15:51;18.40;77.30
7411;DHT22;3747;48.628;9.058;2023-04-10T10:18:24;18.40;76.20
7411;DHT22;3747;48.628;9.058;2023-04-10T10:20:53;18.80;76.70
7411;DHT22;3747;48.628;9.058;2023-04-10T10:23:20;19.30;76.70
7411;DHT22;3747;48.628;9.058;2023-04-10T10:25:48;19.60;72.40
7411;DHT22;3747;48.628;9.058;2023-04-10T10:28:15;18.90;70.50
7411;DHT22;3747;48.628;9.058;2023-04-10T10:30:43;19.10;70.30
7411;DHT22;3747;48.628;9.058;2023-04-10T10:33:13;18.90;69.30
7411;DHT22;3747;48.628;9.058;2023-04-10T10:35:40;18.70;70.10
7411;DHT22;3747;48.628;9.058;2023-04-10T10:38:07;18.80;69.10
7411;DHT22;3747;48.628;9.058;2023-04-10T10:40:40;19.10;67.70
7411;DHT22;3747;48.628;9.058;2023-04-10T10:43:12;19.60;70.00
7411;DHT22;3747;48.628;9.058;2023-04-10T10:45:47;20.30;68.90
7411;DHT22;3747;48.628;9.058;2023-04-10T10:48:17;19.80;69.50
7411;DHT22;3747;48.628;9.058;2023-04-10T10:50:50;20.10;66.80
7411;DHT22;3747;48.628;9.058;2023-04-10T10:53:31;20.00;74.40
7411;DHT22;3747;48.628;9.058;2023-04-10T10:55:58;20.20;68.70
7411;DHT22;3747;48.628;9.058;2023-04-10T10:58:45;20.10;68.10
7411;DHT22;3747;48.628;9.058;2023-04-10T11:01:12;20.30;66.60
7411;DHT22;3747;48.628;9.058;2023-04-10T11:03:41;19.70;66.40
7411;DHT22;3747;48.628;9.058;2023-04-10T11:06:10;19.20;63.50
7411;DHT22;3747;48.628;9.058;2023-04-10T11:08:42;19.10;65.90
7411;DHT22;3747;48.628;9.058;2023-04-10T11:11:20;19.70;67.40
7411;DHT22;3747;48.628;9.058;2023-04-10T11:14:13;20.20;66.40
7411;DHT22;3747;48.628;9.058;2023-04-10T11:16:44;20.30;67.80
7411;DHT22;3747;48.628;9.058;2023-04-10T11:19:13;20.80;67.60
7411;DHT22;3747;48.628;9.058;2023-04-10T11:22:02;21.40;62.90
7411;DHT22;3747;48.628;9.058;2023-04-10T11:24:53;22.00;58.00
7411;DHT22;3747;48.628;9.058;2023-04-10T11:27:39;22.90;64.70
7411;DHT22;3747;48.628;9.058;2023-04-10T11:30:29;23.50;56.70
7411;DHT22;3747;48.628;9.058;2023-04-10T11:32:57;23.40;57.80
7411;DHT22;3747;48.628;9.058;2023-04-10T11:35:26;22.60;58.90
7411;DHT22;3747;48.628;9.058;2023-04-10T11:38:07;22.50;60.30
7411;DHT22;3747;48.628;9.058;2023-04-10T11:40:34;22.10;58.00
7411;DHT22;3747;48.628;9.058;2023-04-10T11:43:11;22.50;54.40
7411;DHT22;3747;48.628;9.058;2023-04-10T11:45:39;22.60;57.30
7411;DHT22;3747;48.628;9.058;2023-04-10T11:48:06;23.10;51.30
7411;DHT22;3747;48.628;9.058;2023-04-10T11:50:35;22.90;49.40
7411;DHT22;3747;48.628;9.058;2023-04-10T11:53:01;22.50;50.20
7411;DHT22;3747;48.628;9.058;2023-04-10T11:55:42;21.70;53.60
7411;DHT22;3747;48.628;9.058;2023-04-10T11:58:21;21.70;49.30
7411;DHT22;3747;48.628;9.058;2023-04-10T12:00:55;21.60;55.10
7411;DHT22;3747;48.628;9.058;2023-04-10T12:03:31;21.90;48.30
7411;DHT22;3747;48.628;9.058;2023-04-10T12:05:59;22.30;51.00
7411;DHT22;3747;48.628;9.058;2023-04-10T12:08:30;22.60;48.30
7411;DHT22;3747;48.628;9.058;2023-04-10T12:10:58;23.00;46.00
7411;DHT22;3747;48.628;9.058;2023-04-10T12:13:25;22.50;44.70
7411;DHT22;3747;48.628;9.058;2023-04-10T12:15:52;21.70;46.70
7411;DHT22;3747;48.628;9.058;2023-04-10T12:18:20;21.20;46.80
7411;DHT22;3747;48.628;9.058;2023-04-10T12:20:47;21.30;50.20
7411;DHT22;3747;48.628;9.058;2023-04-10T12:23:17;21.90;55.90
7411;DHT22;3747;48.628;9.058;2023-04-10T12:25:44;21.60;48.10
7411;DHT22;3747;48.628;9.058;2023-04-10T12:28:16;21.50;47.10
7411;DHT22;3747;48.628;9.058;2023-04-10T12:30:46;20.80;48.00
7411;DHT22;3747;48.628;9.058;2023-04-10T12:33:13;20.00;49.50
7411;DHT22;3747;48.628;9.058;2023-04-10T12:35:40;20.30;48.70
7411;DHT22;3747;48.628;9.058;2023-04-10T12:38:07;20.40;47.90
7411;DHT22;3747;48.628;9.058;2023-04-10T12:40:35;20.80;48.60
7411;DHT22;3747;48.628;9.058;2023-04-10T12:43:03;20.10;47.50
7411;DHT22;3747;48.628;9.058;2023-04-10T12:45:42;19.90;48.90
7411;DHT22;3747;48.628;9.058;2023-04-10T12:48:08;20.10;52.50
7411;DHT22;3747;48.628;9.058;2023-04-10T12:50:45;20.40;47.70
7411;DHT22;3747;48.628;9.058;2023-04-10T12:53:12;20.00;50.10
7411;DHT22;3747;48.628;9.058;2023-04-10T12:55:40;19.40;50.10
7411;DHT22;3747;48.628;9.058;2023-04-10T12:58:17;19.60;49.90
7411;DHT22;3747;48.628;9.058;2023-04-10T13:00:44;19.60;51.40
7411;DHT22;3747;48.628;9.058;2023-04-10T13:03:11;19.70;50.00
7411;DHT22;3747;48.628;9.058;2023-04-10T13:05:38;20.40;52.40
7411;DHT22;3747;48.628;9.058;2023-04-10T13:08:05;21.00;49.00
7411;DHT22;3747;48.628;9.058;2023-04-10T13:10:32;22.00;49.90
7411;DHT22;3747;48.628;9.058;2023-04-10T13:13:00;22.10;52.10
7411;DHT22;3747;48.628;9.058;2023-04-10T13:15:26;22.30;49.90
7411;DHT22;3747;48.628;9.058;2023-04-10T13:17:53;21.90;48.10
7411;DHT22;3747;48.628;9.058;2023-04-10T13:20:20;21.50;50.70
7411;DHT22;3747;48.628;9.058;2023-04-10T13:22:53;21.80;50.10
7411;DHT22;3747;48.628;9.058;2023-04-10T13:25:20;21.90;48.70
7411;DHT22;3747;48.628;9.058;2023-04-10T13:27:49;22.60;48.10
7411;DHT22;3747;48.628;9.058;2023-04-10T13:30:17;23.20;46.60
7411;DHT22;3747;48.628;9.058;2023-04-10T13:32:50;22.90;47.00
7411;DHT22;3747;48.628;9.058;2023-04-10T13:35:18;22.20;46.60
7411;DHT22;3747;48.628;9.058;2023-04-10T13:37:44;21.70;47.40
7411;DHT22;3747;48.628;9.058;2023-04-10T13:40:11;21.50;47.10
7411;DHT22;3747;48.628;9.058;2023-04-10T13:42:38;21.10;48.30
7411;DHT22;3747;48.628;9.058;2023-04-10T13:45:05;20.90;47.50
7411;DHT22;3747;48.628;9.058;2023-04-10T13:47:33;20.10;47.40
7411;DHT22;3747;48.628;9.058;2023-04-10T13:50:00;20.00;49.70
7411;DHT22;3747;48.628;9.058;2023-04-10T13:52:26;20.00;50.70
7411;DHT22;3747;48.628;9.058;2023-04-10T13:54:53;20.10;49.80
7411;DHT22;3747;48.628;9.058;2023-04-10T13:57:21;19.90;48.60
7411;DHT22;3747;48.628;9.058;2023-04-10T13:59:47;19.70;49.00
7411;DHT22;3747;48.628;9.058;2023-04-10T14:02:14;19.60;49.00
7411;DHT22;3747;48.628;9.058;2023-04-10T14:04:42;19.00;48.20
7411;DHT22;3747;48.628;9.058;2023-04-10T14:07:10;19.40;46.80
7411;DHT22;3747;48.628;9.058;2023-04-10T14:09:37;19.60;47.10
7411;DHT22;3747;48.628;9.058;2023-04-10T14:12:04;19.90;47.10
7411;DHT22;3747;48.628;9.058;2023-04-10T14:14:31;19.60;48.10
7411;DHT22;3747;48.628;9.058;2023-04-10T14:16:57;19.90;46.00
7411;DHT22;3747;48.628;9.058;2023-04-10T14:19:24;20.10;45.60
7411;DHT22;3747;48.628;9.058;2023-04-10T14:21:52;20.10;45.90
7411;DHT22;3747;48.628;9.058;2023-04-10T14:24:19;20.20;47.80
7411;DHT22;3747;48.628;9.058;2023-04-10T14:26:46;20.60;50.50
7411;DHT22;3747;48.628;9.058;2023-04-10T14:29:13;21.20;45.80
7411;DHT22;3747;48.628;9.058;2023-04-10T14:31:40;21.00;45.40
7411;DHT22;3747;48.628;9.058;2023-04-10T14:34:07;21.00;47.40
7411;DHT22;3747;48.628;9.058;2023-04-10T14:36:42;21.00;49.90
7411;DHT22;3747;48.628;9.058;2023-04-10T14:39:10;21.20;47.30
7411;DHT22;3747;48.628;9.058;2023-04-10T14:41:37;21.10;49.70
7411;DHT22;3747;48.628;9.058;2023-04-10T14:44:04;21.70;47.30
7411;DHT22;3747;48.628;9.058;2023-04-10T14:46:30;21.20;49.00
7411;DHT22;3747;48.628;9.058;2023-04-10T14:48:57;21.30;47.50
7411;DHT22;3747;48.628;9.058;2023-04-10T14:51:26;21.80;45.60
7411;DHT22;3747;48.628;9.058;2023-04-10T14:53:53;21.90;46.30
7411;DHT22;3747;48.628;9.058;2023-04-10T14:56:21;21.70;47.10
7411;DHT22;3747;48.628;9.058;2023-04-10T14:58:52;21.80;49.00
7411;DHT22;3747;48.628;9.058;2023-04-10T15:01:18;21.20;46.20
7411;DHT22;3747;48.628;9.058;2023-04-10T15:03:46;21.60;45.40
7411;DHT22;3747;48.628;9.058;2023-04-10T15:06:13;21.40;45.40
7411;DHT22;3747;48.628;9.058;2023-04-10T15:08:40;21.60;46.60
7411;DHT22;3747;48.628;9.058;2023-04-10T15:11:07;21.50;47.10
7411;DHT22;3747;48.628;9.058;2023-04-10T15:13:35;20.80;48.40
7411;DHT22;3747;48.628;9.058;2023-04-10T15:16:04;20.80;49.70
7411;DHT22;3747;48.628;9.058;2023-04-10T15:18:30;20.70;52.00
7411;DHT22;3747;48.628;9.058;2023-04-10T15:21:04;20.90;49.00
7411;DHT22;3747;48.628;9.058;2023-04-10T15:23:31;21.30;46.50
7411;DHT22;3747;48.628;9.058;2023-04-10T15:25:57;21.30;46.90
7411;DHT22;3747;48.628;9.058;2023-04-10T15:28:24;21.20;47.40
7411;DHT22;3747;48.628;9.058;2023-04-10T15:30:53;21.20;46.80
7411;DHT22;3747;48.628;9.058;2023-04-10T15:33:21;20.00;47.30
7411;DHT22;3747;48.628;9.058;2023-04-10T15:35:48;19.50;48.30
7411;DHT22;3747;48.628;9.058;2023-04-10T15:38:15;19.50;51.20
7411;DHT22;3747;48.628;9.058;2023-04-10T15:40:42;19.70;48.80
7411;DHT22;3747;48.628;9.058;2023-04-10T15:43:08;19.10;50.50
7411;DHT22;3747;48.628;9.058;2023-04-10T15:45:35;19.00;51.00
7411;DHT22;3747;48.628;9.058;2023-04-10T15:48:04;19.00;49.40
7411;DHT22;3747;48.628;9.058;2023-04-10T15:50:31;18.60;49.80
7411;DHT22;3747;48.628;9.058;2023-04-10T15:52:58;18.60;49.50
7411;DHT22;3747;48.628;9.058;2023-04-10T15:55:24;18.40;49.40
7411;DHT22;3747;48.628;9.058;2023-04-10T15:57:51;18.20;51.10
7411;DHT22;3747;48.628;9.058;2023-04-10T16:00:18;18.00;53.50
7411;DHT22;3747;48.628;9.058;2023-04-10T16:02:45;18.00;52.50
7411;DHT22;3747;48.628;9.058;2023-04-10T16:05:13;18.10;52.00
7411;DHT22;3747;48.628;9.058;2023-04-10T16:07:40;17.70;51.60
7411;DHT22;3747;48.628;9.058;2023-04-10T16:10:08;17.60;50.00
7411;DHT22;3747;48.628;9.058;2023-04-10T16:12:35;17.40;49.90